createdAt,value
2023-04-18T00:00:49.678Z,16.65
2023-04-18T00:03:16.657Z,16.57
2023-04-18T00:05:43.990Z,16.47
2023-04-18T00:08:10.715Z,16.48
2023-04-18T00:10:37.258Z,16.47
2023-04-18T00:13:03.843Z,16.44
2023-04-18T00:15:31.175Z,16.47
2023-04-18T00:17:57.816Z,16.51
2023-04-18T00:20:26.112Z,16.52
2023-04-18T00:22:53.229Z,16.15
2023-04-18T00:25:19.828Z,16.34
2023-04-18T00:27:46.416Z,16.31
2023-04-18T00:30:13.179Z,16.19
2023-04-18T00:32:39.748Z,16.23
2023-04-18T00:35:07.170Z,16.27
2023-04-18T00:37:33.714Z,16.38
2023-04-18T00:40:00.271Z,16.15
2023-04-18T00:42:29.271Z,16.27
2023-04-18T00:44:55.931Z,16.21
2023-04-18T00:47:22.695Z,16.11
2023-04-18T00:49:49.722Z,15.88
2023-04-18T00:52:18.379Z,16.24
2023-04-18T00:54:45.423Z,16.20
2023-04-18T00:57:12.757Z,16.27
2023-04-18T00:59:39.499Z,16.23
2023-04-18T01:02:07.715Z,16.17
2023-04-18T01:04:34.386Z,16.23
2023-04-18T01:07:02.102Z,16.30
2023-04-18T01:09:29.425Z,16.32
2023-04-18T01:11:56.164Z,16.30
2023-04-18T01:14:23.287Z,16.27
2023-04-18T01:16:49.886Z,16.21
2023-04-18T01:19:18.673Z,16.24
2023-04-18T01:21:45.428Z,16.22
2023-04-18T01:24:15.619Z,16.24
2023-04-18T01:26:44.056Z,16.26
2023-04-18T01:29:11.220Z,16.15
2023-04-18T01:31:38.584Z,16.30
2023-04-18T01:34:07.366Z,16.24
2023-04-18T01:36:35.197Z,16.22
2023-04-18T01:39:02.247Z,16.22
2023-04-18T01:41:32.265Z,16.29
2023-04-18T01:43:59.655Z,16.20
2023-04-18T01:46:26.399Z,16.24
2023-04-18T01:48:53.722Z,16.17
2023-04-18T01:51:21.396Z,16.27
2023-04-18T01:53:48.087Z,16.28
2023-04-18T01:56:14.733Z,16.29
2023-04-18T01:58:41.682Z,16.21
2023-04-18T02:01:08.578Z,16.09
2023-04-18T02:03:35.424Z,16.11
2023-04-18T02:06:04.023Z,15.99
2023-04-18T02:08:32.924Z,16.09
2023-04-18T02:11:01.230Z,15.76
2023-04-18T02:13:28.351Z,16.01
2023-04-18T02:15:54.885Z,16.09
2023-04-18T02:18:24.633Z,16.21
2023-04-18T02:20:51.910Z,16.14
2023-04-18T02:23:18.805Z,16.19
2023-04-18T02:25:45.678Z,16.07
2023-04-18T02:28:12.263Z,16.13
2023-04-18T02:30:38.843Z,16.05
2023-04-18T02:33:05.463Z,16.03
2023-04-18T02:35:32.091Z,16.07
2023-04-18T02:37:58.602Z,16.05
2023-04-18T02:40:25.134Z,16.04
2023-04-18T02:42:51.730Z,15.96
2023-04-18T02:45:18.387Z,16.02
2023-04-18T02:47:54.467Z,16.05
2023-04-18T02:50:22.575Z,16.05
2023-04-18T02:52:49.241Z,15.85
2023-04-18T02:55:18.118Z,15.79
2023-04-18T02:57:45.773Z,15.93
2023-04-18T03:00:38.517Z,15.78
2023-04-18T03:03:25.801Z,15.80
2023-04-18T03:06:18.508Z,15.93
2023-04-18T03:08:45.260Z,15.96
2023-04-18T03:11:12.641Z,15.79
2023-04-18T03:13:39.269Z,15.86
2023-04-18T03:16:06.624Z,15.89
2023-04-18T03:18:33.898Z,15.62
2023-04-18T03:21:01.756Z,15.88
2023-04-18T03:23:30.573Z,15.89
2023-04-18T03:25:58.256Z,15.89
2023-04-18T03:28:26.238Z,15.94
2023-04-18T03:30:53.352Z,15.88
2023-04-18T03:33:20.092Z,16.00
2023-04-18T03:35:49.109Z,15.97
2023-04-18T03:38:15.705Z,15.96
2023-04-18T03:40:44.410Z,15.75
2023-04-18T03:43:19.881Z,15.84
2023-04-18T03:45:47.617Z,15.90
2023-04-18T03:48:16.316Z,15.83
2023-04-18T03:50:44.876Z,15.93
2023-04-18T03:53:11.506Z,15.83
2023-04-18T03:55:38.998Z,15.85
2023-04-18T03:58:06.219Z,15.89
2023-04-18T04:00:33.674Z,15.86
2023-04-18T04:03:06.892Z,15.58
2023-04-18T04:05:33.738Z,15.57
2023-04-18T04:08:00.268Z,15.81
2023-04-18T04:10:26.810Z,15.75
2023-04-18T04:12:53.644Z,15.66
2023-04-18T04:15:20.902Z,15.30
2023-04-18T04:18:02.624Z,15.58
2023-04-18T04:20:29.981Z,15.66
2023-04-18T04:23:07.322Z,15.59
2023-04-18T04:25:35.485Z,15.65
2023-04-18T04:28:08.162Z,15.55
2023-04-18T04:30:43.903Z,15.51
2023-04-18T04:33:11.539Z,15.41
2023-04-18T04:35:38.165Z,15.61
2023-04-18T04:38:05.673Z,15.50
2023-04-18T04:40:40.015Z,15.65
2023-04-18T04:43:12.535Z,15.63
2023-04-18T04:45:41.328Z,15.53
2023-04-18T04:48:08.966Z,15.60
2023-04-18T04:50:38.259Z,15.63
2023-04-18T04:53:06.270Z,15.65
2023-04-18T04:55:33.539Z,15.54
2023-04-18T04:58:01.074Z,15.33
2023-04-18T05:00:52.411Z,15.69
2023-04-18T05:03:20.042Z,15.61
2023-04-18T05:05:47.256Z,15.53
2023-04-18T05:08:14.015Z,15.23
2023-04-18T05:10:41.468Z,15.30
2023-04-18T05:13:07.984Z,15.56
2023-04-18T05:15:34.617Z,15.61
2023-04-18T05:18:01.159Z,15.66
2023-04-18T05:20:27.859Z,15.76
2023-04-18T05:22:54.419Z,15.73
2023-04-18T05:25:21.094Z,15.83
2023-04-18T05:27:49.367Z,15.77
2023-04-18T05:30:22.349Z,15.82
2023-04-18T05:32:48.940Z,15.84
2023-04-18T05:35:15.667Z,15.94
2023-04-18T05:37:42.228Z,15.95
2023-04-18T05:40:09.219Z,15.99
2023-04-18T05:42:35.747Z,16.10
2023-04-18T05:45:02.338Z,16.03
2023-04-18T05:47:30.419Z,16.18
2023-04-18T05:49:57.175Z,16.07
2023-04-18T05:52:26.324Z,16.29
2023-04-18T05:54:53.460Z,16.09
2023-04-18T05:57:29.156Z,16.24
2023-04-18T05:59:55.735Z,16.27
2023-04-18T06:02:22.451Z,16.40
2023-04-18T06:04:49.816Z,16.61
2023-04-18T06:07:16.720Z,16.71
2023-04-18T06:09:43.376Z,16.52
2023-04-18T06:12:09.985Z,16.65
2023-04-18T06:14:36.513Z,16.83
2023-04-18T06:17:03.042Z,17.09
2023-04-18T06:19:29.600Z,17.03
2023-04-18T06:21:56.201Z,16.66
2023-04-18T06:24:23.703Z,16.74
2023-04-18T06:26:50.304Z,16.99
2023-04-18T06:29:18.044Z,16.89
2023-04-18T06:31:46.600Z,16.50
2023-04-18T06:34:13.498Z,16.94
2023-04-18T06:36:40.304Z,17.01
2023-04-18T06:39:06.841Z,16.99
2023-04-18T06:41:33.473Z,17.24
2023-04-18T06:44:04.290Z,17.30
2023-04-18T06:46:32.448Z,17.45
2023-04-18T06:48:59.287Z,17.58
2023-04-18T06:51:25.878Z,17.50
2023-04-18T06:53:53.606Z,17.17
2023-04-18T06:56:20.741Z,17.34
2023-04-18T06:58:48.192Z,17.19
2023-04-18T07:01:14.770Z,17.68
2023-04-18T07:03:41.378Z,17.81
2023-04-18T07:06:10.420Z,17.58
2023-04-18T07:08:37.025Z,17.58
2023-04-18T07:11:03.728Z,18.00
2023-04-18T07:13:30.330Z,18.13
2023-04-18T07:15:56.931Z,18.08
2023-04-18T07:18:36.623Z,17.90
2023-04-18T07:21:07.417Z,17.80
2023-04-18T07:23:34.520Z,18.15
2023-04-18T07:26:02.633Z,18.20
2023-04-18T07:28:31.079Z,17.74
2023-04-18T07:30:58.138Z,18.08
2023-04-18T07:33:25.309Z,18.13
2023-04-18T07:35:53.016Z,18.45
2023-04-18T07:38:19.726Z,18.45
2023-04-18T07:40:46.255Z,18.34
2023-04-18T07:43:12.787Z,17.57
2023-04-18T07:45:39.349Z,18.01
2023-04-18T07:48:06.233Z,18.07
2023-04-18T07:50:32.826Z,18.03
2023-04-18T07:52:59.501Z,18.16
2023-04-18T07:55:26.132Z,18.34
2023-04-18T07:57:52.669Z,18.48
2023-04-18T08:00:19.480Z,18.56
2023-04-18T08:02:46.489Z,19.32
2023-04-18T08:05:13.513Z,19.49
2023-04-18T08:07:40.487Z,19.70
2023-04-18T08:10:07.479Z,19.97
2023-04-18T08:12:34.430Z,19.57
2023-04-18T08:15:01.085Z,19.33
2023-04-18T08:17:27.646Z,19.44
2023-04-18T08:19:54.188Z,19.47
2023-04-18T08:22:20.770Z,19.74
2023-04-18T08:25:01.370Z,19.76
2023-04-18T08:27:31.372Z,19.46
2023-04-18T08:29:58.132Z,19.50
2023-04-18T08:32:24.775Z,19.01
2023-04-18T08:34:51.448Z,19.12
2023-04-18T08:37:18.064Z,19.30
2023-04-18T08:39:45.049Z,19.32
2023-04-18T08:42:15.866Z,19.72
2023-04-18T08:44:42.900Z,19.20
2023-04-18T08:47:10.678Z,19.44
2023-04-18T08:49:37.216Z,19.22
2023-04-18T08:52:10.325Z,18.94
2023-04-18T08:54:38.564Z,18.60
2023-04-18T08:57:07.347Z,18.20
2023-04-18T08:59:35.442Z,18.39
2023-04-18T09:02:04.089Z,17.35
2023-04-18T09:04:41.046Z,17.89
2023-04-18T09:07:10.068Z,17.83
2023-04-18T09:09:50.238Z,17.41
2023-04-18T09:12:25.363Z,17.68
2023-04-18T09:15:15.924Z,17.93
2023-04-18T09:17:50.958Z,17.82
2023-04-18T09:20:37.461Z,17.98
2023-04-18T09:23:10.758Z,17.86
2023-04-18T09:25:45.053Z,17.67
2023-04-18T09:28:27.794Z,17.88
2023-04-18T09:31:13.311Z,18.45
2023-04-18T09:33:44.742Z,18.40
2023-04-18T09:36:19.991Z,18.89
2023-04-18T09:38:47.601Z,19.04
2023-04-18T09:41:21.206Z,19.25
2023-04-18T09:43:48.181Z,19.33
2023-04-18T09:46:17.576Z,18.96
2023-04-18T09:48:44.393Z,18.68
2023-04-18T09:51:14.662Z,18.75
2023-04-18T09:53:44.632Z,17.95
2023-04-18T09:56:32.524Z,18.81
2023-04-18T09:59:08.872Z,18.54
2023-04-18T10:01:36.460Z,18.98
2023-04-18T10:04:06.286Z,19.92
2023-04-18T10:06:34.315Z,19.58
2023-04-18T10:09:03.316Z,19.40
2023-04-18T10:11:31.667Z,19.06
2023-04-18T10:14:02.577Z,20.21
2023-04-18T10:16:29.761Z,20.28
2023-04-18T10:18:56.523Z,20.62
2023-04-18T10:21:23.128Z,20.32
2023-04-18T10:23:50.381Z,19.91
2023-04-18T10:26:16.965Z,20.57
2023-04-18T10:28:54.171Z,19.71
2023-04-18T10:31:22.480Z,20.62
2023-04-18T10:34:03.784Z,21.06
2023-04-18T10:36:32.964Z,21.38
2023-04-18T10:39:19.945Z,21.34
2023-04-18T10:41:51.097Z,20.42
2023-04-18T10:44:23.729Z,20.63
2023-04-18T10:46:52.532Z,20.66
2023-04-18T10:49:30.233Z,20.48
2023-04-18T10:52:03.125Z,20.97
2023-04-18T10:54:50.937Z,20.47
2023-04-18T10:57:17.696Z,19.62
2023-04-18T10:59:49.191Z,20.21
2023-04-18T11:02:27.099Z,19.81
2023-04-18T11:04:55.505Z,20.22
2023-04-18T11:07:45.984Z,19.01
2023-04-18T11:10:13.132Z,19.59
2023-04-18T11:12:41.147Z,19.38
2023-04-18T11:15:22.197Z,19.42
2023-04-18T11:18:04.937Z,18.33
2023-04-18T11:20:47.764Z,19.18
2023-04-18T11:23:21.344Z,18.96
2023-04-18T11:25:54.326Z,18.75
2023-04-18T11:28:22.072Z,19.07
2023-04-18T11:30:48.691Z,19.29
2023-04-18T11:33:15.454Z,19.26
2023-04-18T11:35:44.135Z,20.32
2023-04-18T11:38:13.708Z,21.22
2023-04-18T11:40:47.788Z,20.54
2023-04-18T11:43:23.526Z,20.99
2023-04-18T11:45:55.189Z,20.00
2023-04-18T11:48:22.434Z,18.88
2023-04-18T11:50:53.340Z,19.43
2023-04-18T11:53:36.889Z,19.62
2023-04-18T11:56:04.277Z,20.06
2023-04-18T11:58:32.985Z,20.16
2023-04-18T12:01:00.959Z,20.73
2023-04-18T12:03:29.248Z,21.31
2023-04-18T12:06:00.727Z,21.85
2023-04-18T12:08:27.390Z,21.99
2023-04-18T12:10:55.092Z,21.51
2023-04-18T12:13:26.769Z,21.61
2023-04-18T12:15:54.417Z,21.16
2023-04-18T12:18:21.445Z,21.63
2023-04-18T12:20:50.504Z,21.45
2023-04-18T12:23:38.194Z,22.12
2023-04-18T12:26:06.948Z,22.12
2023-04-18T12:28:34.890Z,22.02
2023-04-18T12:31:02.298Z,21.73
2023-04-18T12:33:28.936Z,21.02
2023-04-18T12:35:56.009Z,21.05
2023-04-18T12:38:23.618Z,21.39
2023-04-18T12:40:51.369Z,20.90
2023-04-18T12:43:18.614Z,21.04
2023-04-18T12:45:49.493Z,20.77
2023-04-18T12:48:16.345Z,20.75
2023-04-18T12:50:42.865Z,20.99
2023-04-18T12:53:09.505Z,20.96
2023-04-18T12:55:36.278Z,20.25
2023-04-18T12:58:03.288Z,21.25
2023-04-18T13:00:32.584Z,21.51
2023-04-18T13:02:59.768Z,21.09
2023-04-18T13:05:31.717Z,20.97
2023-04-18T13:08:15.173Z,20.20
2023-04-18T13:10:43.614Z,20.86
2023-04-18T13:13:10.369Z,20.96
2023-04-18T13:15:37.044Z,20.32
2023-04-18T13:18:06.275Z,20.70
2023-04-18T13:20:36.760Z,20.79
2023-04-18T13:23:03.687Z,21.00
2023-04-18T13:25:30.520Z,20.52
2023-04-18T13:27:58.369Z,20.48
2023-04-18T13:30:25.233Z,20.83
2023-04-18T13:32:51.840Z,20.81
2023-04-18T13:35:18.531Z,20.99
2023-04-18T13:37:46.061Z,20.95
2023-04-18T13:40:12.796Z,20.27
2023-04-18T13:42:39.400Z,20.50
2023-04-18T13:45:09.399Z,20.59
2023-04-18T13:47:36.582Z,20.88
2023-04-18T13:50:07.078Z,20.86
2023-04-18T13:52:33.620Z,21.10
2023-04-18T13:55:01.793Z,20.26
2023-04-18T13:57:32.119Z,20.56
2023-04-18T13:59:58.966Z,20.82
2023-04-18T14:02:25.838Z,20.78
2023-04-18T14:04:55.037Z,20.93
2023-04-18T14:07:21.799Z,20.17
2023-04-18T14:09:48.355Z,20.57
2023-04-18T14:12:14.932Z,20.33
2023-04-18T14:14:41.873Z,19.99
2023-04-18T14:17:08.402Z,18.97
2023-04-18T14:19:35.003Z,19.41
2023-04-18T14:22:01.517Z,19.47
2023-04-18T14:24:28.109Z,19.38
2023-04-18T14:26:54.795Z,18.56
2023-04-18T14:29:21.397Z,19.30
2023-04-18T14:31:48.030Z,19.46
2023-04-18T14:34:14.669Z,19.69
2023-04-18T14:36:41.433Z,20.06
2023-04-18T14:39:08.246Z,19.90
2023-04-18T14:41:34.884Z,19.88
2023-04-18T14:44:02.231Z,19.82
2023-04-18T14:46:29.174Z,19.89
2023-04-18T14:48:56.715Z,19.96
2023-04-18T14:51:23.842Z,19.83
2023-04-18T14:53:51.217Z,19.35
2023-04-18T14:56:37.164Z,19.48
2023-04-18T14:59:03.927Z,19.65
2023-04-18T15:01:30.711Z,19.35
2023-04-18T15:03:57.528Z,19.12
2023-04-18T15:06:24.306Z,19.57
2023-04-18T15:08:52.986Z,19.71
2023-04-18T15:11:20.239Z,19.76
2023-04-18T15:13:47.594Z,19.35
2023-04-18T15:16:14.560Z,19.11
2023-04-18T15:18:41.618Z,19.25
2023-04-18T15:21:08.630Z,19.56
2023-04-18T15:23:35.267Z,19.25
2023-04-18T15:26:02.252Z,19.26
2023-04-18T15:28:28.990Z,19.23
2023-04-18T15:30:58.658Z,18.30
2023-04-18T15:33:26.016Z,18.24
2023-04-18T15:35:52.605Z,18.11
2023-04-18T15:38:28.244Z,18.35
2023-04-18T15:40:54.842Z,17.96
2023-04-18T15:43:21.418Z,17.69
2023-04-18T15:45:48.262Z,17.98
2023-04-18T15:48:14.861Z,17.79
2023-04-18T15:50:42.243Z,18.03
2023-04-18T15:53:08.781Z,17.21
2023-04-18T15:55:38.146Z,17.86
2023-04-18T15:58:05.009Z,18.28
2023-04-18T16:00:31.573Z,18.52
2023-04-18T16:02:58.279Z,18.70
2023-04-18T16:05:25.081Z,18.60
2023-04-18T16:07:53.719Z,18.84
2023-04-18T16:10:20.488Z,19.08
2023-04-18T16:12:47.181Z,19.34
2023-04-18T16:15:13.721Z,19.47
2023-04-18T16:17:40.310Z,19.49
2023-04-18T16:20:08.894Z,19.83
2023-04-18T16:22:36.397Z,19.57
2023-04-18T16:25:04.100Z,19.24
2023-04-18T16:27:30.633Z,19.67
2023-04-18T16:29:57.288Z,19.68
2023-04-18T16:32:23.870Z,18.98
2023-04-18T16:34:50.553Z,19.46
2023-04-18T16:37:17.319Z,19.66
2023-04-18T16:39:43.981Z,19.89
2023-04-18T16:42:11.044Z,19.19
2023-04-18T16:44:39.330Z,19.52
2023-04-18T16:47:08.105Z,19.96
2023-04-18T16:49:34.734Z,20.36
2023-04-18T16:52:01.793Z,20.17
2023-04-18T16:54:28.352Z,19.66
2023-04-18T16:56:54.892Z,19.70
2023-04-18T16:59:21.539Z,20.04
2023-04-18T17:01:48.130Z,19.89
2023-04-18T17:04:15.518Z,19.95
2023-04-18T17:06:43.612Z,19.32
2023-04-18T17:09:13.354Z,19.14
2023-04-18T17:11:41.002Z,19.46
2023-04-18T17:14:08.610Z,18.57
2023-04-18T17:16:37.685Z,19.08
2023-04-18T17:19:04.723Z,18.72
2023-04-18T17:21:31.805Z,19.02
2023-04-18T17:24:01.700Z,19.01
2023-04-18T17:26:28.246Z,18.98
2023-04-18T17:28:54.825Z,18.54
2023-04-18T17:31:21.459Z,18.66
2023-04-18T17:33:50.647Z,18.60
2023-04-18T17:36:17.622Z,17.95
2023-04-18T17:38:50.269Z,18.14
2023-04-18T17:41:18.742Z,17.44
2023-04-18T17:43:45.899Z,17.79
2023-04-18T17:46:13.627Z,17.80
2023-04-18T17:48:40.970Z,17.82
2023-04-18T17:51:07.503Z,17.72
2023-04-18T17:53:34.079Z,17.73
2023-04-18T17:56:00.793Z,17.60
2023-04-18T17:58:28.021Z,17.65
2023-04-18T18:00:54.561Z,17.60
2023-04-18T18:03:21.352Z,17.65
2023-04-18T18:05:49.353Z,17.75
2023-04-18T18:08:15.924Z,17.66
2023-04-18T18:10:42.855Z,17.65
2023-04-18T18:13:09.360Z,17.13
2023-04-18T18:15:35.888Z,17.53
2023-04-18T18:18:02.542Z,17.42
2023-04-18T18:20:29.329Z,17.63
2023-04-18T18:22:57.074Z,17.68
2023-04-18T18:25:23.617Z,17.58
2023-04-18T18:27:51.222Z,17.43
2023-04-18T18:30:18.821Z,17.67
2023-04-18T18:32:45.438Z,17.71
2023-04-18T18:35:12.479Z,17.81
2023-04-18T18:37:39.017Z,17.39
2023-04-18T18:40:06.524Z,17.66
2023-04-18T18:42:33.046Z,17.70
2023-04-18T18:45:01.410Z,17.66
2023-04-18T18:47:28.324Z,17.60
2023-04-18T18:49:54.906Z,17.62
2023-04-18T18:52:21.731Z,17.73
2023-04-18T18:54:48.323Z,17.67
2023-04-18T18:57:15.011Z,17.71
2023-04-18T18:59:42.483Z,17.73
2023-04-18T19:02:09.097Z,17.71
2023-04-18T19:04:35.815Z,17.61
2023-04-18T19:07:02.424Z,17.74
2023-04-18T19:09:28.999Z,17.81
2023-04-18T19:11:56.796Z,17.73
2023-04-18T19:14:23.379Z,17.59
2023-04-18T19:16:50.566Z,17.83
2023-04-18T19:19:17.545Z,17.88
2023-04-18T19:21:45.922Z,17.89
2023-04-18T19:24:13.124Z,17.87
2023-04-18T19:26:39.786Z,17.66
2023-04-18T19:29:07.626Z,17.66
2023-04-18T19:31:34.959Z,17.73
2023-04-18T19:34:01.791Z,17.74
2023-04-18T19:36:28.396Z,17.82
2023-04-18T19:38:54.908Z,17.64
2023-04-18T19:41:21.659Z,17.54
2023-04-18T19:43:48.479Z,17.48
2023-04-18T19:46:15.305Z,17.55
2023-04-18T19:48:42.007Z,17.76
2023-04-18T19:51:08.523Z,17.80
2023-04-18T19:53:36.419Z,17.77
2023-04-18T19:56:03.024Z,17.43
2023-04-18T19:58:44.903Z,17.56
2023-04-18T20:01:12.560Z,17.44
2023-04-18T20:03:39.623Z,17.56
2023-04-18T20:06:06.898Z,17.59
2023-04-18T20:08:38.142Z,17.60
2023-04-18T20:11:07.747Z,17.63
2023-04-18T20:13:36.518Z,17.50
2023-04-18T20:16:04.874Z,17.61
2023-04-18T20:18:32.107Z,17.73
2023-04-18T20:20:58.654Z,17.60
2023-04-18T20:23:25.534Z,17.64
2023-04-18T20:25:52.081Z,17.41
2023-04-18T20:28:18.598Z,17.21
2023-04-18T20:30:45.633Z,17.62
2023-04-18T20:33:12.403Z,17.55
2023-04-18T20:35:38.952Z,17.24
2023-04-18T20:38:06.571Z,17.44
2023-04-18T20:40:34.124Z,17.57
2023-04-18T20:43:04.457Z,17.64
2023-04-18T20:45:31.784Z,17.51
2023-04-18T20:47:58.511Z,17.70
2023-04-18T20:50:25.027Z,17.60
2023-04-18T20:52:51.563Z,17.70
2023-04-18T20:55:18.223Z,17.52
2023-04-18T20:57:44.808Z,17.39
2023-04-18T21:00:13.900Z,17.43
2023-04-18T21:02:41.570Z,17.40
2023-04-18T21:05:08.687Z,17.47
2023-04-18T21:07:35.849Z,17.41
2023-04-18T21:10:03.554Z,17.30
2023-04-18T21:12:30.180Z,17.42
2023-04-18T21:14:56.711Z,17.28
2023-04-18T21:17:25.352Z,17.42
2023-04-18T21:19:52.322Z,17.29
2023-04-18T21:22:18.895Z,17.44
2023-04-18T21:24:46.696Z,17.39
2023-04-18T21:27:13.340Z,17.41
2023-04-18T21:29:40.757Z,17.54
2023-04-18T21:32:07.287Z,17.47
2023-04-18T21:34:33.838Z,17.46
2023-04-18T21:37:00.685Z,17.44
2023-04-18T21:39:27.623Z,17.48
2023-04-18T21:41:54.170Z,17.51
2023-04-18T21:44:20.743Z,17.41
2023-04-18T21:46:47.251Z,17.35
2023-04-18T21:49:13.779Z,17.46
2023-04-18T21:51:40.387Z,17.40
2023-04-18T21:54:09.780Z,17.38
2023-04-18T21:56:36.330Z,17.37
2023-04-18T21:59:02.851Z,17.31
2023-04-18T22:01:29.508Z,17.35
2023-04-18T22:03:56.173Z,17.23
2023-04-18T22:06:23.238Z,17.36
2023-04-18T22:08:50.032Z,17.36
2023-04-18T22:11:16.596Z,17.29
2023-04-18T22:13:44.678Z,17.25
2023-04-18T22:16:11.779Z,17.29
2023-04-18T22:18:38.483Z,17.24
2023-04-18T22:21:05.041Z,17.28
2023-04-18T22:23:31.627Z,17.27
2023-04-18T22:25:58.214Z,17.23
2023-04-18T22:28:24.848Z,17.26
2023-04-18T22:30:51.394Z,17.29
2023-04-18T22:33:18.067Z,17.18
2023-04-18T22:35:44.615Z,17.25
2023-04-18T22:38:11.291Z,17.30
2023-04-18T22:40:37.818Z,17.24
2023-04-18T22:43:04.344Z,17.18
2023-04-18T22:45:31.116Z,17.27
2023-04-18T22:47:57.744Z,17.17
2023-04-18T22:50:24.299Z,17.23
2023-04-18T22:52:51.007Z,17.19
2023-04-18T22:55:17.588Z,17.16
2023-04-18T22:57:44.084Z,17.22
2023-04-18T23:00:11.285Z,17.03
2023-04-18T23:02:38.027Z,17.26
2023-04-18T23:05:06.798Z,17.21
2023-04-18T23:07:33.306Z,17.14
2023-04-18T23:09:59.820Z,17.19
2023-04-18T23:12:26.778Z,16.32
2023-04-18T23:14:53.332Z,16.96
2023-04-18T23:17:19.944Z,16.99
2023-04-18T23:19:46.464Z,17.02
2023-04-18T23:22:13.008Z,17.04
2023-04-18T23:24:39.621Z,17.10
2023-04-18T23:27:06.273Z,16.94
2023-04-18T23:29:37.139Z,17.02
2023-04-18T23:32:03.863Z,17.05
2023-04-18T23:34:30.514Z,17.12
2023-04-18T23:36:57.026Z,17.11
2023-04-18T23:39:26.106Z,17.11
2023-04-18T23:41:52.685Z,17.15
2023-04-18T23:44:19.197Z,17.07
2023-04-18T23:46:45.923Z,17.12
2023-04-18T23:49:12.461Z,17.06
2023-04-18T23:51:39.011Z,17.09
2023-04-18T23:54:05.624Z,17.10
2023-04-18T23:56:32.222Z,17.04
2023-04-18T23:58:58.787Z,16.84
